Flight Track Log - Related Links

Times and Time Zones

All times are in EDT time to prevent confusion due to time zone crossing. See the ASQ4179 flight status page for this flight to view local times or setup timezone preferences in your user account.

Time Position Orientation Groundspeed Altitude Reporting Facility
EDT Latitude Longitude Course Direction KTS MPH feet Rate Location/Type
Wed 12:20:02 PM 35.1892 -80.9508 270° West 158 182 1,400  Level Atlanta Center
Wed 12:21:21 PM 35.1231 -80.9739 196° South 233 268 3,200 1,701 Climbing Atlanta Center
Wed 12:22:00 PM 35.2605 -81.1798 282° West  Level FlightAware Approximate
Wed 12:22:16 PM 35.1247 -81.0525 272° West 273 314 5,200  Level Atlanta Center
Wed 12:23:00 PM 35.2333 -81.2946 242° Southwest  Level FlightAware Approximate
Wed 12:23:10 PM 35.1311 -81.1361 275° West 272 313 7,100  Level Atlanta Center
Wed 12:23:42 PM 35.1322 -81.1842 272° West 270 311 8,100 1,957 Climbing Atlanta Center
Wed 12:24:00 PM 35.1818 -81.4031 239° Southwest  Level FlightAware Approximate
Wed 12:24:42 PM 35.1361 -81.2653 273° West 276 318 10,100  Level Atlanta Center
Wed 12:25:00 PM 35.1333 -81.5118 270° West  Level FlightAware Approximate
Wed 12:25:42 PM 35.1406 -81.3744 273° West 295 339 10,800  Level Atlanta Center
Wed 12:26:42 PM 35.1472 -81.4886 274° West 335 386 12,500 1,650 Climbing Atlanta Center
Wed 12:27:42 PM 35.1414 -81.6081 267° West 351 404 14,100 1,650 Climbing Atlanta Center
Wed 12:28:42 PM 35.1331 -81.7278 265° West 351 404 15,800 1,600 Climbing Atlanta Center
Wed 12:29:42 PM 35.1231 -81.8600 265° West 351 404 17,300 1,350 Climbing Atlanta Center
Wed 12:30:42 PM 35.1106 -81.9797 263° West 351 404 18,500 1,250 Climbing Atlanta Center
Wed 12:31:42 PM 35.1042 -82.0967 266° West 351 404 19,800 1,250 Climbing Atlanta Center
Wed 12:32:42 PM 35.0956 -82.2136 265° West 351 404 21,000 1,200 Climbing Atlanta Center
Wed 12:33:42 PM 35.1033 -82.3278 275° West 351 404 22,200 1,300 Climbing Atlanta Center
Wed 12:34:42 PM 35.1319 -82.4361 288° West 346 398 23,600 1,550 Climbing Atlanta Center
Wed 12:35:42 PM 35.1583 -82.5475 286° West 346 398 25,300 1,800 Climbing Atlanta Center
Wed 12:36:42 PM 35.1869 -82.6589 287° West 346 398 27,200 1,800 Climbing Atlanta Center
Wed 12:37:42 PM 35.2131 -82.7600 288° West 332 382 28,900 900 Climbing Atlanta Center
Wed 12:38:42 PM 35.2369 -82.8589 287° West 313 360 29,000 250 Climbing Atlanta Center
Wed 12:39:42 PM 35.2003 -82.9611 246° West 306 352 29,400 500 Climbing Atlanta Center
Wed 12:40:42 PM 35.1719 -83.0733 253° West 325 374 30,000 300 Climbing Atlanta Center
Wed 12:41:42 PM 35.1458 -83.1956 255° West 354 407 30,000 650 Level Atlanta Center
Wed 12:42:42 PM 35.1217 -83.3200 257° West 374 430 31,300 1,450 Climbing Atlanta Center
Wed 12:43:42 PM 35.0992 -83.4372 257° West 373 429 32,900 1,300 Climbing Atlanta Center
Wed 12:44:42 PM 35.0725 -83.5567 255° West 368 423 33,900 900 Climbing Atlanta Center
Wed 12:45:42 PM 35.0481 -83.6683 255° West 362 417 34,700 700 Climbing Atlanta Center
Wed 12:46:42 PM 35.0275 -83.7700 256° West 351 404 35,300 550 Climbing Atlanta Center
Wed 12:47:42 PM 35.0006 -83.8842 254° West 351 404 35,800 350 Climbing Atlanta Center
Wed 12:48:42 PM 34.9775 -84.0033 257° West 351 404 36,000 100 Climbing Atlanta Center
Wed 12:49:42 PM 34.9506 -84.1300 255° West 371 427 36,000  Level Atlanta Center
Wed 12:50:42 PM 34.9231 -84.2667 256° West 377 434 36,000  Level Atlanta Center
Wed 12:51:42 PM 34.8978 -84.3883 256° West 394 453 36,000  Level Atlanta Center
Wed 12:52:42 PM 34.8681 -84.5275 255° West 408 470 36,000  Level Atlanta Center
Wed 12:53:42 PM 34.8342 -84.6664 253° West 423 487 36,000  Level Atlanta Center
Wed 12:54:42 PM 34.8042 -84.8028 255° West 423 487 36,000  Level Atlanta Center
Wed 12:55:42 PM 34.7761 -84.9442 256° West 423 487 36,000  Level Atlanta Center
Wed 12:56:42 PM 34.7458 -85.0778 255° West 423 487 36,000  Level Atlanta Center
Wed 12:57:42 PM 34.7133 -85.2164 254° West 423 487 36,000  Level Atlanta Center
Wed 12:58:42 PM 34.6825 -85.3522 255° West 423 487 36,000  Level Atlanta Center
Wed 12:59:42 PM 34.6519 -85.4881 255° West 418 481 36,000  Level Atlanta Center
Wed 01:00:42 PM 34.6208 -85.6264 255° West 418 481 36,000  Level Atlanta Center
Wed 01:01:42 PM 34.5919 -85.7647 256° West 418 481 36,000  Level Atlanta Center
Wed 01:02:42 PM 34.5608 -85.8953 254° West 413 475 36,000  Level Atlanta Center
Wed 01:03:42 PM 34.5294 -86.0306 254° West 413 475 36,000  Level Atlanta Center
Wed 01:04:42 PM 34.5000 -86.1661 255° West 413 475 36,000  Level Atlanta Center
Wed 01:05:42 PM 34.4686 -86.2989 254° West 413 475 36,000  Level Atlanta Center
Wed 01:06:42 PM 34.4369 -86.4314 254° West 413 475 36,000  Level Atlanta Center
Wed 01:07:42 PM 34.4050 -86.5639 254° West 413 475 36,000  Level Atlanta Center
Wed 01:09:14 PM 34.3547 -86.7722 254° West 417 480 36,000  Level Memphis Center
Wed 01:10:14 PM 34.3192 -86.9219 254° West 422 486 36,000  Level Memphis Center
Wed 01:11:14 PM 34.2875 -87.0589 254° West 422 486 36,000  Level Memphis Center
Wed 01:12:14 PM 34.2556 -87.1933 254° West 422 486 36,000  Level Memphis Center
Wed 01:13:14 PM 34.2250 -87.3125 253° West 398 458 36,000  Level Memphis Center
Wed 01:14:14 PM 34.1944 -87.4342 253° West 398 458 36,000  Level Memphis Center
Wed 01:15:14 PM 34.1642 -87.5633 254° West 406 467 36,000  Level Memphis Center
Wed 01:16:14 PM 34.1317 -87.6972 254° West 411 473 36,000  Level Memphis Center
Wed 01:17:14 PM 34.0969 -87.8289 252° West 411 473 36,000  Level Memphis Center
Wed 01:18:14 PM 34.0639 -87.9600 253° West 416 479 36,000  Level Memphis Center
Wed 01:19:14 PM 34.0331 -88.0889 254° West 416 479 36,000  Level Memphis Center
Wed 01:20:14 PM 33.9958 -88.2375 253° West 416 479 36,000  Level Memphis Center
Wed 01:21:14 PM 33.9625 -88.3686 253° West 416 479 36,000  Level Memphis Center
Wed 01:22:14 PM 33.9292 -88.4972 253° West 416 479 36,000  Level Memphis Center
Wed 01:23:14 PM 33.8956 -88.6256 253° West 411 473 36,000  Level Memphis Center
Wed 01:24:14 PM 33.8639 -88.7536 253° West 406 467 36,000  Level Memphis Center
Wed 01:25:14 PM 33.8319 -88.8767 253° West 389 448 36,000  Level Memphis Center
Wed 01:26:14 PM 33.8042 -88.9972 255° West 394 453 36,000  Level Memphis Center
Wed 01:27:14 PM 33.7681 -89.1403 253° West 404 465 36,000  Level Memphis Center
Wed 01:28:14 PM 33.7339 -89.2656 252° West 404 465 36,000  Level Memphis Center
Wed 01:29:14 PM 33.7014 -89.3958 253° West 404 465 36,000  Level Memphis Center
Wed 01:30:14 PM 33.6669 -89.5236 252° West 404 465 36,000  Level Memphis Center
Wed 01:31:14 PM 33.6342 -89.6511 253° West 404 465 36,000  Level Memphis Center
Wed 01:32:14 PM 33.5994 -89.7786 252° West 404 465 36,000  Level Memphis Center
Wed 01:33:14 PM 33.5667 -89.9036 253° West 404 465 36,000  Level Memphis Center
Wed 01:34:14 PM 33.5314 -90.0283 251° West 404 465 36,000  Level Memphis Center
Wed 01:35:14 PM 33.4983 -90.1531 252° West 404 465 36,000  Level Memphis Center
Wed 01:36:14 PM 33.4608 -90.2775 250° West 404 465 36,000  Level Memphis Center
Wed 01:37:14 PM 33.4025 -90.3847 237° Southwest 393 452 36,000  Level Memphis Center
Wed 01:38:14 PM 33.3442 -90.4767 233° Southwest 388 447 36,000  Level Memphis Center
Wed 01:39:14 PM 33.2814 -90.5808 234° Southwest 393 452 36,000  Level Memphis Center
Wed 01:40:14 PM 33.2183 -90.6825 233° Southwest 393 452 36,000  Level Memphis Center
Wed 01:41:14 PM 33.1556 -90.7842 234° Southwest 387 445 36,000  Level Memphis Center
Wed 01:42:14 PM 33.0947 -90.8856 234° Southwest 387 445 36,000  Level Memphis Center
Wed 01:43:14 PM 33.0314 -90.9892 234° Southwest 387 445 36,000  Level Memphis Center
Wed 01:44:14 PM 32.9683 -91.0928 234° Southwest 387 445 36,000  Level Memphis Center
Wed 01:46:35 PM 32.8236 -91.3253 234° Southwest 369 425 36,000  Level Fort Worth Center
Wed 01:47:35 PM 32.7619 -91.4306 235° Southwest 379 436 36,000  Level Fort Worth Center
Wed 01:48:35 PM 32.7000 -91.5286 233° Southwest 379 436 36,000  Level Fort Worth Center
Wed 01:49:35 PM 32.6378 -91.6289 234° Southwest 379 436 36,000  Level Fort Worth Center
Wed 01:50:35 PM 32.5736 -91.7314 233° Southwest 379 436 36,000  Level Fort Worth Center
Wed 01:51:34 PM 32.5114 -91.8339 234° Southwest 379 436 36,000  Level Fort Worth Center
Wed 01:53:51 PM 32.3658 -92.0600 233° Southwest 383 441 36,000  Level Houston Center
Wed 01:54:53 PM 32.3000 -92.1589 232° Southwest 382 440 36,000  Level Houston Center
Wed 01:55:55 PM 32.2233 -92.2833 234° Southwest 389 448 36,000  Level Houston Center
Wed 01:56:57 PM 32.1589 -92.3897 234° Southwest 396 456 36,000  Level Houston Center
Wed 01:57:59 PM 32.0919 -92.4942 233° Southwest 399 459 36,000  Level Houston Center
Wed 01:59:02 PM 32.0247 -92.5986 233° Southwest 400 460 36,000  Level Houston Center
Wed 02:00:04 PM 31.9547 -92.7003 231° Southwest 400 460 36,000 -48 Level Houston Center
Wed 02:01:06 PM 31.8681 -92.7817 219° Southwest 398 458 35,900  Descending Houston Center
Wed 02:02:08 PM 31.7667 -92.8792 219° Southwest 394 453 36,000 48 Climbing Houston Center
Wed 02:03:10 PM 31.6811 -92.9597 219° Southwest 394 453 36,000  Level Houston Center
Wed 02:04:12 PM 31.5967 -93.0417 220° Southwest 394 453 36,000 -48 Level Houston Center
Wed 02:05:14 PM 31.5100 -93.1253 219° Southwest 400 460 35,900  Descending Houston Center
Wed 02:06:16 PM 31.4233 -93.2086 219° Southwest 403 464 36,000 48 Climbing Houston Center
Wed 02:07:18 PM 31.3261 -93.3006 219° Southwest 400 460 36,000 -48 Level Houston Center
Wed 02:08:20 PM 31.2333 -93.3883 219° Southwest 402 463 35,900  Descending Houston Center
Wed 02:09:22 PM 31.1483 -93.4694 219° Southwest 399 459 36,000  Climbing Houston Center
Wed 02:10:24 PM 31.0622 -93.5500 219° Southwest 398 458 35,900 -968 Descending Houston Center
Wed 02:11:26 PM 30.9772 -93.6322 220° Southwest 399 459 34,000 -2,129 Descending Houston Center
Wed 02:12:28 PM 30.8919 -93.7119 219° Southwest 396 456 31,500 -2,592 Descending Houston Center
Wed 02:13:31 PM 30.7906 -93.8089 219° Southwest 396 456 28,600 -2,640 Descending Houston Center
Wed 02:14:33 PM 30.7008 -93.8939 219° Southwest 416 479 26,000 -2,661 Descending Houston Center
Wed 02:15:35 PM 30.6064 -93.9817 219° Southwest 434 499 23,100 -2,855 Descending Houston Center
Wed 02:16:37 PM 30.5169 -94.0650 219° Southwest 419 482 20,100 -3,097 Descending Houston Center
Wed 02:17:39 PM 30.4169 -94.1586 219° Southwest 393 452 16,700 -3,194 Descending Houston Center
Wed 02:18:41 PM 30.3344 -94.2367 219° Southwest 386 444 13,500 -2,226 Descending Houston Center
Wed 02:19:43 PM 30.2636 -94.3183 225° Southwest 369 425 12,100 -960 Descending Houston Center
Wed 02:20:46 PM 30.2211 -94.4108 242° Southwest 331 381 11,500 -1,152 Descending Houston Center
Wed 02:21:48 PM 30.1817 -94.4958 242° Southwest 289 333 9,700 -1,645 Descending Houston Center
Wed 02:22:50 PM 30.1517 -94.5756 246° West 273 314 8,100 -694 Descending Houston Center
Wed 02:24:15 PM 30.1164 -94.7089 253° West 280 322 8,000 -48 Descending Houston Center
Wed 02:24:54 PM 30.1006 -94.7628 251° West 280 322 8,000  Level Houston Center
Wed 02:25:56 PM 30.0769 -94.8456 252° West 273 314 8,000 -339 Level Houston Center
Wed 02:26:58 PM 30.0553 -94.9194 251° West 245 282 7,300 -871 Descending Houston Center
Wed 02:28:00 PM 30.0347 -94.9906 252° West 235 270 6,200 -1,200 Descending Houston Center
Wed 02:29:03 PM 30.0158 -95.0614 253° West 233 268 4,800 -1,392 Descending Houston Center
Wed 02:30:05 PM 29.9942 -95.1453 253° West 230 265 3,300 -1,452 Descending Houston Center

Login

Don't have an account? Register now (free) for customized features, flight alerts, and more!